createdAt,value
2022-10-15T00:01:30.676Z,45.95
2022-10-15T00:06:35.158Z,45.80
2022-10-15T00:09:05.037Z,45.70
2022-10-15T00:11:33.225Z,46.67
2022-10-15T00:14:02.079Z,46.13
2022-10-15T00:16:30.752Z,46.42
2022-10-15T00:19:00.443Z,43.90
2022-10-15T00:21:29.281Z,44.92
2022-10-15T00:23:58.116Z,43.60
2022-10-15T00:26:29.576Z,44.35
2022-10-15T00:29:00.028Z,44.17
2022-10-15T00:31:29.959Z,44.25
2022-10-15T00:33:59.823Z,43.88
2022-10-15T00:36:30.131Z,44.92
2022-10-15T00:38:58.668Z,45.42
2022-10-15T00:41:30.598Z,42.33
2022-10-15T00:44:00.226Z,44.92
2022-10-15T00:46:32.373Z,43.35
2022-10-15T00:51:42.494Z,44.67
2022-10-15T00:54:12.220Z,44.35
2022-10-15T00:56:44.672Z,44.17
2022-10-15T00:59:14.592Z,44.30
2022-10-15T01:01:43.497Z,44.05
2022-10-15T01:04:14.205Z,44.38
2022-10-15T01:06:42.470Z,43.67
2022-10-15T01:09:10.872Z,42.72
2022-10-15T01:11:46.863Z,45.92
2022-10-15T01:14:29.676Z,43.95
2022-10-15T01:17:06.051Z,43.92
2022-10-15T01:20:03.068Z,44.63
2022-10-15T01:22:44.398Z,42.75
2022-10-15T01:25:29.273Z,43.80
2022-10-15T01:28:06.899Z,43.67
2022-10-15T01:30:41.072Z,43.65
2022-10-15T01:33:30.666Z,44.13
2022-10-15T01:36:07.621Z,42.05
2022-10-15T01:38:46.624Z,42.65
2022-10-15T01:41:20.363Z,42.72
2022-10-15T01:44:00.530Z,41.92
2022-10-15T01:46:59.656Z,43.17
2022-10-15T01:49:32.834Z,43.33
2022-10-15T01:52:12.623Z,42.80
2022-10-15T01:54:41.713Z,43.22
2022-10-15T01:57:12.144Z,45.17
2022-10-15T01:59:43.657Z,43.13
2022-10-15T02:02:13.879Z,43.00
2022-10-15T02:04:42.220Z,44.08
2022-10-15T02:07:13.273Z,42.42
2022-10-15T02:09:49.923Z,43.58
2022-10-15T02:12:37.979Z,41.67
2022-10-15T02:15:13.300Z,41.70
2022-10-15T02:17:47.188Z,41.85
2022-10-15T02:20:21.068Z,43.20
2022-10-15T02:22:55.641Z,42.63
2022-10-15T02:25:26.533Z,43.53
2022-10-15T02:27:58.048Z,41.40
2022-10-15T02:30:30.257Z,42.72
2022-10-15T02:33:01.213Z,41.15
2022-10-15T02:35:29.904Z,40.67
2022-10-15T02:38:03.312Z,41.17
2022-10-15T02:40:36.264Z,41.00
2022-10-15T02:43:07.822Z,40.55
2022-10-15T02:45:36.388Z,40.38
2022-10-15T02:48:07.168Z,40.75
2022-10-15T02:50:35.640Z,41.78
2022-10-15T02:53:04.063Z,40.05
2022-10-15T02:55:32.385Z,39.17
2022-10-15T02:58:00.832Z,40.08
2022-10-15T03:00:29.535Z,39.20
2022-10-15T03:02:57.821Z,41.00
2022-10-15T03:08:01.460Z,39.00
2022-10-15T03:10:31.252Z,39.95
2022-10-15T03:13:04.542Z,40.95
2022-10-15T03:15:37.480Z,40.78
2022-10-15T03:18:06.265Z,41.80
2022-10-15T03:20:37.410Z,40.05
2022-10-15T03:23:05.668Z,39.92
2022-10-15T03:25:34.081Z,41.63
2022-10-15T03:28:05.814Z,41.55
2022-10-15T03:30:41.140Z,40.30
2022-10-15T03:33:09.443Z,40.92
2022-10-15T03:35:39.794Z,40.03
2022-10-15T03:38:08.386Z,39.63
2022-10-15T03:40:36.771Z,40.58
2022-10-15T03:43:25.316Z,42.85
2022-10-15T03:45:54.624Z,41.60
2022-10-15T03:48:25.189Z,40.00
2022-10-15T03:50:55.029Z,40.88
2022-10-15T03:53:23.228Z,40.33
2022-10-15T03:55:51.772Z,39.92
2022-10-15T03:58:20.042Z,39.38
2022-10-15T04:00:56.650Z,38.67
2022-10-15T04:03:25.010Z,39.38
2022-10-15T04:05:56.750Z,38.95
2022-10-15T04:08:29.261Z,40.15
2022-10-15T04:10:59.217Z,39.00
2022-10-15T04:13:28.615Z,39.65
2022-10-15T04:15:57.363Z,38.72
2022-10-15T04:18:25.481Z,38.25
2022-10-15T04:20:59.973Z,38.72
2022-10-15T04:23:28.421Z,39.75
2022-10-15T04:26:23.479Z,37.25
2022-10-15T04:28:51.935Z,37.55
2022-10-15T04:31:22.175Z,37.95
2022-10-15T04:33:51.233Z,35.90
2022-10-15T04:36:20.837Z,36.13
2022-10-15T04:39:00.313Z,36.95
2022-10-15T04:41:36.159Z,35.78
2022-10-15T04:44:08.440Z,36.80
2022-10-15T04:46:38.669Z,37.10
2022-10-15T04:49:27.053Z,37.28
2022-10-15T04:51:56.756Z,36.33
2022-10-15T04:54:45.266Z,37.08
2022-10-15T04:57:13.736Z,38.05
2022-10-15T04:59:42.036Z,38.33
2022-10-15T05:02:27.105Z,39.03
2022-10-15T05:05:08.531Z,38.38
2022-10-15T05:07:45.816Z,37.67
2022-10-15T05:10:14.189Z,37.92
2022-10-15T05:15:16.486Z,38.97
2022-10-15T05:17:46.040Z,37.78
2022-10-15T05:20:14.289Z,39.33
2022-10-15T05:22:43.027Z,38.67
2022-10-15T05:25:12.894Z,38.88
2022-10-15T05:27:42.587Z,37.67
2022-10-15T05:30:12.079Z,37.83
2022-10-15T05:32:47.907Z,38.90
2022-10-15T05:35:18.972Z,39.40
2022-10-15T05:37:56.197Z,39.35
2022-10-15T05:40:26.577Z,38.85
2022-10-15T05:43:23.942Z,37.75
2022-10-15T05:45:55.580Z,39.53
2022-10-15T05:48:24.550Z,38.65
2022-10-15T05:50:52.850Z,38.28
2022-10-15T05:53:26.521Z,37.42
2022-10-15T05:56:01.071Z,39.75
2022-10-15T05:58:37.192Z,38.53
2022-10-15T06:01:07.961Z,38.30
2022-10-15T06:03:40.205Z,39.13
2022-10-15T06:06:15.465Z,39.00
2022-10-15T06:08:45.089Z,38.15
2022-10-15T06:11:15.133Z,37.53
2022-10-15T06:13:44.507Z,37.13
2022-10-15T06:16:15.593Z,36.53
2022-10-15T06:18:46.222Z,37.00
2022-10-15T06:21:14.425Z,36.72
2022-10-15T06:23:42.683Z,37.13
2022-10-15T06:26:11.778Z,36.25
2022-10-15T06:28:41.470Z,35.70
2022-10-15T06:31:10.148Z,36.50
2022-10-15T06:33:38.510Z,35.60
2022-10-15T06:36:08.814Z,34.83
2022-10-15T06:38:37.165Z,33.70
2022-10-15T06:41:06.086Z,35.72
2022-10-15T06:43:35.382Z,32.35
2022-10-15T06:46:06.762Z,34.92
2022-10-15T06:48:35.741Z,34.50
2022-10-15T06:51:04.947Z,33.60
2022-10-15T06:53:33.676Z,34.30
2022-10-15T06:56:03.950Z,32.53
2022-10-15T06:58:37.532Z,34.00
2022-10-15T07:01:09.134Z,34.65
2022-10-15T07:03:39.009Z,33.05
2022-10-15T07:06:10.412Z,33.85
2022-10-15T07:08:38.923Z,33.33
2022-10-15T07:11:08.857Z,35.13
2022-10-15T07:13:37.441Z,33.17
2022-10-15T07:16:08.891Z,32.97
2022-10-15T07:18:38.607Z,33.42
2022-10-15T07:21:08.279Z,34.80
2022-10-15T07:23:36.732Z,33.75
2022-10-15T07:26:05.033Z,33.75
2022-10-15T07:28:33.441Z,33.75
2022-10-15T07:31:03.965Z,33.85
2022-10-15T07:33:34.749Z,33.47
2022-10-15T07:36:06.288Z,33.95
2022-10-15T07:38:35.107Z,32.40
2022-10-15T07:41:05.621Z,32.53
2022-10-15T07:43:41.713Z,29.95
2022-10-15T07:46:10.015Z,30.20
2022-10-15T07:48:39.572Z,29.80
2022-10-15T07:51:09.140Z,28.67
2022-10-15T07:53:37.427Z,28.55
2022-10-15T07:56:07.971Z,28.10
2022-10-15T07:58:38.269Z,28.60
2022-10-15T08:01:07.276Z,27.17
2022-10-15T08:03:36.145Z,26.63
2022-10-15T08:06:08.522Z,27.02
2022-10-15T08:08:37.707Z,26.63
2022-10-15T08:11:07.163Z,26.98
2022-10-15T08:13:35.455Z,26.75
2022-10-15T08:16:03.672Z,26.92
2022-10-15T08:18:31.944Z,27.00
2022-10-15T08:21:01.488Z,27.65
2022-10-15T08:23:31.059Z,26.40
2022-10-15T08:26:00.552Z,27.23
2022-10-15T08:28:29.148Z,25.92
2022-10-15T08:31:02.678Z,26.27
2022-10-15T08:33:34.824Z,25.60
2022-10-15T08:36:03.372Z,25.67
2022-10-15T08:38:33.113Z,26.13
2022-10-15T08:41:02.872Z,25.25
2022-10-15T08:43:36.615Z,25.55
2022-10-15T08:46:11.490Z,24.80
2022-10-15T08:48:44.795Z,26.48
2022-10-15T08:51:18.000Z,25.65
2022-10-15T08:53:54.378Z,26.10
2022-10-15T08:56:26.195Z,25.55
2022-10-15T08:59:01.509Z,25.48
2022-10-15T09:01:35.772Z,25.17
2022-10-15T09:04:15.821Z,25.10
2022-10-15T09:06:44.524Z,25.77
2022-10-15T09:09:20.865Z,25.55
2022-10-15T09:11:58.027Z,24.38
2022-10-15T09:14:31.225Z,26.23
2022-10-15T09:17:05.107Z,24.33
2022-10-15T09:19:37.568Z,26.20
2022-10-15T09:22:13.437Z,24.83
2022-10-15T09:24:43.051Z,24.15
2022-10-15T09:27:28.422Z,23.58
2022-10-15T09:30:05.151Z,22.52
2022-10-15T09:32:40.368Z,22.80
2022-10-15T09:35:18.484Z,23.17
2022-10-15T09:37:52.003Z,23.80
2022-10-15T09:40:38.430Z,22.90
2022-10-15T09:43:07.434Z,22.15
2022-10-15T09:45:35.641Z,22.38
2022-10-15T09:48:07.449Z,22.40
2022-10-15T09:50:41.965Z,20.92
2022-10-15T09:53:24.473Z,21.13
2022-10-15T09:56:06.988Z,21.00
2022-10-15T09:58:40.459Z,21.83
2022-10-15T10:01:17.695Z,20.30
2022-10-15T10:03:46.050Z,20.20
2022-10-15T10:06:16.443Z,19.60
2022-10-15T10:08:53.274Z,19.95
2022-10-15T10:11:24.882Z,20.33
2022-10-15T10:13:56.024Z,20.45
2022-10-15T10:16:25.414Z,20.33
2022-10-15T10:19:05.960Z,19.10
2022-10-15T10:21:36.321Z,18.90
2022-10-15T10:24:23.492Z,18.85
2022-10-15T10:26:53.475Z,19.08
2022-10-15T10:29:33.657Z,19.58
2022-10-15T10:32:12.218Z,18.85
2022-10-15T10:34:47.520Z,19.60
2022-10-15T10:37:18.594Z,19.98
2022-10-15T10:39:51.089Z,18.73
2022-10-15T10:42:32.112Z,19.55
2022-10-15T10:45:19.109Z,18.75
2022-10-15T10:47:47.697Z,18.50
2022-10-15T10:50:32.103Z,19.10
2022-10-15T10:53:11.562Z,18.52
2022-10-15T10:55:42.242Z,18.52
2022-10-15T10:58:23.444Z,17.73
2022-10-15T11:00:56.276Z,17.88
2022-10-15T11:03:32.661Z,20.92
2022-10-15T11:06:15.993Z,17.45
2022-10-15T11:08:53.809Z,18.15
2022-10-15T11:11:29.400Z,19.55
2022-10-15T11:14:08.232Z,17.45
2022-10-15T11:16:45.062Z,17.83
2022-10-15T11:19:54.539Z,21.00
2022-10-15T11:22:33.794Z,19.90
2022-10-15T11:25:16.185Z,15.93
2022-10-15T11:27:57.389Z,16.00
2022-10-15T11:30:40.100Z,17.17
2022-10-15T11:33:27.400Z,17.55
2022-10-15T11:36:03.403Z,17.75
2022-10-15T11:38:40.709Z,16.63
2022-10-15T11:41:36.005Z,17.08
2022-10-15T11:44:22.586Z,15.32
2022-10-15T11:47:03.947Z,15.18
2022-10-15T11:49:42.186Z,16.67
2022-10-15T11:52:39.928Z,14.02
2022-10-15T11:55:15.031Z,14.68
2022-10-15T11:57:46.514Z,14.88
2022-10-15T12:00:27.474Z,15.88
2022-10-15T12:03:01.386Z,16.05
2022-10-15T12:05:36.448Z,14.38
2022-10-15T12:08:06.048Z,15.00
2022-10-15T12:10:49.850Z,14.43
2022-10-15T12:13:29.613Z,15.23
2022-10-15T12:16:09.382Z,14.60
2022-10-15T12:18:44.759Z,14.20
2022-10-15T12:21:38.197Z,13.93
2022-10-15T12:24:10.727Z,14.38
2022-10-15T12:26:39.220Z,14.57
2022-10-15T12:29:20.867Z,14.48
2022-10-15T12:31:50.948Z,14.20
2022-10-15T12:34:41.985Z,13.43
2022-10-15T12:37:18.081Z,14.02
2022-10-15T12:39:52.701Z,14.18
2022-10-15T12:42:26.926Z,13.90
2022-10-15T12:44:56.574Z,14.23
2022-10-15T12:47:55.793Z,14.73
2022-10-15T12:50:27.140Z,13.75
2022-10-15T12:53:01.643Z,14.20
2022-10-15T12:55:32.623Z,14.18
2022-10-15T12:58:04.232Z,13.85
2022-10-15T13:00:40.679Z,13.45
2022-10-15T13:03:38.982Z,13.95
2022-10-15T13:06:31.487Z,13.75
2022-10-15T13:09:06.779Z,13.95
2022-10-15T13:11:39.368Z,13.73
2022-10-15T13:14:24.853Z,14.13
2022-10-15T13:16:57.723Z,14.05
2022-10-15T13:19:29.163Z,14.48
2022-10-15T13:22:02.356Z,14.45
2022-10-15T13:24:41.796Z,14.90
2022-10-15T13:27:17.514Z,13.90
2022-10-15T13:29:59.883Z,14.75
2022-10-15T13:32:31.050Z,13.93
2022-10-15T13:34:59.872Z,13.48
2022-10-15T13:37:34.000Z,14.07
2022-10-15T13:40:07.559Z,14.25
2022-10-15T13:42:36.804Z,14.63
2022-10-15T13:45:16.334Z,15.23
2022-10-15T13:47:49.662Z,14.93
2022-10-15T13:50:23.971Z,14.50
2022-10-15T13:52:59.405Z,14.23
2022-10-15T13:55:30.476Z,14.93
2022-10-15T13:58:02.126Z,15.52
2022-10-15T14:00:33.359Z,15.90
2022-10-15T14:03:20.692Z,14.70
2022-10-15T14:05:50.072Z,16.00
2022-10-15T14:08:22.678Z,15.52
2022-10-15T14:10:54.432Z,15.55
2022-10-15T14:13:22.909Z,15.35
2022-10-15T14:18:35.445Z,15.05
2022-10-15T14:21:04.941Z,14.45
2022-10-15T14:23:34.594Z,15.82
2022-10-15T14:26:04.482Z,15.65
2022-10-15T14:28:35.119Z,16.35
2022-10-15T14:31:03.976Z,15.18
2022-10-15T14:33:48.665Z,15.10
2022-10-15T14:36:28.929Z,15.60
2022-10-15T14:39:26.459Z,15.20
2022-10-15T14:41:59.959Z,15.35
2022-10-15T14:44:40.911Z,16.20
2022-10-15T14:47:20.014Z,16.50
2022-10-15T14:49:48.902Z,15.63
2022-10-15T14:52:20.505Z,15.57
2022-10-15T14:55:00.707Z,15.70
2022-10-15T14:57:32.501Z,15.38
2022-10-15T15:00:01.921Z,14.90
2022-10-15T15:02:31.120Z,15.52
2022-10-15T15:05:09.512Z,15.23
2022-10-15T15:07:37.770Z,15.80
2022-10-15T15:10:09.753Z,16.27
2022-10-15T15:12:40.498Z,16.48
2022-10-15T15:15:15.829Z,15.10
2022-10-15T15:17:45.092Z,15.73
2022-10-15T15:20:13.745Z,16.10
2022-10-15T15:22:43.096Z,15.68
2022-10-15T15:25:16.923Z,16.40
2022-10-15T15:27:45.373Z,15.85
2022-10-15T15:30:18.112Z,15.40
2022-10-15T15:32:46.492Z,16.73
2022-10-15T15:35:21.384Z,16.05
2022-10-15T15:37:52.400Z,16.33
2022-10-15T15:40:22.216Z,15.40
2022-10-15T15:42:51.409Z,16.52
2022-10-15T15:45:22.711Z,17.55
2022-10-15T15:47:51.385Z,16.55
2022-10-15T15:50:21.999Z,17.38
2022-10-15T15:52:50.220Z,16.27
2022-10-15T15:55:18.559Z,16.35
2022-10-15T15:57:49.287Z,16.83
2022-10-15T16:00:18.284Z,16.88
2022-10-15T16:02:46.502Z,16.80
2022-10-15T16:05:17.189Z,17.58
2022-10-15T16:07:46.060Z,17.98
2022-10-15T16:10:14.227Z,18.23
2022-10-15T16:12:44.054Z,18.80
2022-10-15T16:15:16.322Z,19.63
2022-10-15T16:17:44.719Z,19.17
2022-10-15T16:20:13.454Z,19.08
2022-10-15T16:22:42.814Z,19.23
2022-10-15T16:25:11.368Z,19.52
2022-10-15T16:27:39.592Z,19.95
2022-10-15T16:30:08.723Z,19.83
2022-10-15T16:32:38.297Z,18.92
2022-10-15T16:35:07.509Z,19.38
2022-10-15T16:37:35.919Z,20.27
2022-10-15T16:40:04.282Z,19.58
2022-10-15T16:42:32.457Z,20.30
2022-10-15T16:45:00.817Z,18.42
2022-10-15T16:47:29.265Z,20.25
2022-10-15T16:49:58.787Z,19.73
2022-10-15T16:52:27.636Z,19.85
2022-10-15T16:54:55.982Z,19.98
2022-10-15T16:57:24.228Z,18.25
2022-10-15T16:59:52.633Z,19.55
2022-10-15T17:02:20.881Z,19.35
2022-10-15T17:04:49.119Z,19.90
2022-10-15T17:07:18.883Z,20.33
2022-10-15T17:12:17.792Z,20.02
2022-10-15T17:14:51.585Z,21.60
2022-10-15T17:17:20.102Z,20.80
2022-10-15T17:19:48.284Z,22.73
2022-10-15T17:22:17.969Z,21.70
2022-10-15T17:24:46.214Z,22.38
2022-10-15T17:27:14.508Z,21.92
2022-10-15T17:29:43.608Z,22.67
2022-10-15T17:32:11.804Z,22.40
2022-10-15T17:34:40.013Z,22.90
2022-10-15T17:37:08.941Z,21.13
2022-10-15T17:39:38.591Z,24.00
2022-10-15T17:42:06.839Z,22.15
2022-10-15T17:44:35.180Z,22.63
2022-10-15T17:47:03.490Z,22.30
2022-10-15T17:49:31.684Z,22.20
2022-10-15T17:51:59.933Z,23.58
2022-10-15T17:54:28.188Z,23.40
2022-10-15T17:56:57.831Z,23.02
2022-10-15T17:59:26.039Z,23.75
2022-10-15T18:01:59.317Z,22.80
2022-10-15T18:04:29.339Z,21.35
2022-10-15T18:06:57.599Z,22.17
2022-10-15T18:09:26.523Z,21.55
2022-10-15T18:11:58.321Z,23.50
2022-10-15T18:14:30.140Z,22.00
2022-10-15T18:16:58.699Z,22.92
2022-10-15T18:19:28.265Z,22.77
2022-10-15T18:21:57.082Z,21.33
2022-10-15T18:24:25.522Z,22.77
2022-10-15T18:26:54.305Z,23.08
2022-10-15T18:29:25.398Z,23.58
2022-10-15T18:31:57.606Z,22.38
2022-10-15T18:34:28.447Z,22.65
2022-10-15T18:36:56.936Z,22.65
2022-10-15T18:39:25.455Z,22.92
2022-10-15T18:41:54.226Z,22.60
2022-10-15T18:44:24.932Z,22.52
2022-10-15T18:46:53.671Z,23.52
2022-10-15T18:49:22.328Z,23.00
2022-10-15T18:51:53.055Z,23.80
2022-10-15T18:54:22.605Z,22.85
2022-10-15T18:56:51.101Z,23.25
2022-10-15T18:59:20.667Z,22.77
2022-10-15T19:01:51.299Z,23.23
2022-10-15T19:04:21.430Z,23.38
2022-10-15T19:06:51.194Z,22.67
2022-10-15T19:09:21.635Z,23.67
2022-10-15T19:11:51.476Z,22.95
2022-10-15T19:14:20.327Z,23.02
2022-10-15T19:16:50.696Z,23.80
2022-10-15T19:19:20.724Z,23.30
2022-10-15T19:21:50.352Z,24.30
2022-10-15T19:24:20.844Z,23.27
2022-10-15T19:26:49.661Z,22.70
2022-10-15T19:29:17.944Z,23.50
2022-10-15T19:31:51.075Z,21.90
2022-10-15T19:34:19.343Z,23.38
2022-10-15T19:36:50.770Z,22.65
2022-10-15T19:39:21.022Z,22.48
2022-10-15T19:41:50.282Z,22.33
2022-10-15T19:44:24.944Z,23.42
2022-10-15T19:46:55.837Z,22.45
2022-10-15T19:49:25.141Z,20.92
2022-10-15T19:51:53.692Z,21.60
2022-10-15T19:54:21.949Z,21.65
2022-10-15T19:56:50.189Z,20.80
2022-10-15T19:59:18.413Z,21.35
2022-10-15T20:01:46.782Z,22.08
2022-10-15T20:04:16.442Z,20.80
2022-10-15T20:06:44.943Z,20.92
2022-10-15T20:09:13.109Z,21.55
2022-10-15T20:11:41.752Z,21.05
2022-10-15T20:14:10.103Z,22.20
2022-10-15T20:16:39.057Z,20.85
2022-10-15T20:19:07.435Z,21.50
2022-10-15T20:21:37.415Z,21.38
2022-10-15T20:24:05.814Z,21.60
2022-10-15T20:26:34.303Z,20.88
2022-10-15T20:29:02.896Z,20.65
2022-10-15T20:31:33.149Z,21.35
2022-10-15T20:34:02.287Z,20.90
2022-10-15T20:36:30.716Z,21.00
2022-10-15T20:39:01.975Z,19.48
2022-10-15T20:41:31.569Z,20.40
2022-10-15T20:43:59.964Z,19.77
2022-10-15T20:46:31.168Z,19.70
2022-10-15T20:49:06.071Z,20.13
2022-10-15T20:51:38.462Z,20.05
2022-10-15T20:54:08.380Z,19.25
2022-10-15T20:56:36.791Z,19.45
2022-10-15T20:59:05.887Z,19.27
2022-10-15T21:01:35.465Z,19.23
2022-10-15T21:04:04.392Z,19.35
2022-10-15T21:06:33.011Z,18.50
2022-10-15T21:09:01.202Z,18.60
2022-10-15T21:11:30.823Z,19.75
2022-10-15T21:14:00.785Z,18.92
2022-10-15T21:16:29.110Z,18.17
2022-10-15T21:18:57.291Z,17.75
2022-10-15T21:21:25.505Z,18.17
2022-10-15T21:23:53.782Z,17.58
2022-10-15T21:26:22.481Z,17.10
2022-10-15T21:28:55.364Z,16.90
2022-10-15T21:31:24.361Z,16.98
2022-10-15T21:33:52.733Z,16.23
2022-10-15T21:36:24.513Z,16.90
2022-10-15T21:38:54.837Z,15.55
2022-10-15T21:41:23.204Z,15.57
2022-10-15T21:43:53.009Z,15.25
2022-10-15T21:46:21.552Z,15.57
2022-10-15T21:48:49.916Z,15.85
2022-10-15T21:51:20.001Z,16.50
2022-10-15T21:53:48.855Z,16.60
2022-10-15T21:56:17.718Z,17.20
2022-10-15T21:58:46.509Z,16.25
2022-10-15T22:01:19.432Z,15.50
2022-10-15T22:03:48.718Z,16.52
2022-10-15T22:06:17.939Z,17.13
2022-10-15T22:08:46.743Z,17.05
2022-10-15T22:11:16.777Z,16.98
2022-10-15T22:13:46.589Z,15.45
2022-10-15T22:16:17.638Z,16.67
2022-10-15T22:18:46.459Z,16.10
2022-10-15T22:21:17.370Z,16.70
2022-10-15T22:23:45.723Z,16.70
2022-10-15T22:26:14.484Z,16.55
2022-10-15T22:28:43.473Z,17.23
2022-10-15T22:31:13.646Z,16.85
2022-10-15T22:33:44.036Z,16.35
2022-10-15T22:36:17.296Z,17.00
2022-10-15T22:38:47.816Z,16.40
2022-10-15T22:41:17.296Z,16.08
2022-10-15T22:43:45.536Z,16.10
2022-10-15T22:46:13.848Z,14.63
2022-10-15T22:48:44.177Z,14.48
2022-10-15T22:51:14.535Z,14.60
2022-10-15T22:53:43.348Z,13.65
2022-10-15T22:56:13.975Z,13.43
2022-10-15T22:58:43.188Z,14.35
2022-10-15T23:01:13.181Z,14.82
2022-10-15T23:03:46.285Z,14.43
2022-10-15T23:06:15.616Z,14.35
2022-10-15T23:08:44.816Z,14.27
2022-10-15T23:11:15.001Z,13.98
2022-10-15T23:13:44.423Z,14.23
2022-10-15T23:16:14.988Z,14.23
2022-10-15T23:18:46.106Z,13.95
2022-10-15T23:21:16.360Z,14.30
2022-10-15T23:23:46.117Z,13.23
2022-10-15T23:26:16.270Z,13.82
2022-10-15T23:28:45.321Z,13.15
2022-10-15T23:31:17.058Z,13.85
2022-10-15T23:33:46.823Z,13.50
2022-10-15T23:36:15.468Z,13.32
2022-10-15T23:38:43.794Z,14.00
2022-10-15T23:41:12.312Z,13.35
2022-10-15T23:43:40.582Z,13.02
2022-10-15T23:46:08.975Z,13.65
2022-10-15T23:48:37.361Z,13.52
2022-10-15T23:51:14.468Z,13.55
2022-10-15T23:56:12.112Z,14.10
2022-10-15T23:58:40.732Z,12.75
